sensor_id;sensor_type;location;lat;lon;timestamp;P1;durP1;ratioP1;P2;durP2;ratioP2
21084;SDS011;72320;50.082;20.000;2024-03-23T00:55:11;10.00;;;9.30;;
21084;SDS011;72320;50.082;20.000;2024-03-23T00:57:57;10.00;;;9.40;;
21084;SDS011;72320;50.082;20.000;2024-03-23T01:00:42;9.90;;;9.30;;
21084;SDS011;72320;50.082;20.000;2024-03-23T01:03:28;10.10;;;9.50;;
21084;SDS011;72320;50.082;20.000;2024-03-23T01:06:14;10.30;;;9.60;;
21084;SDS011;72320;50.082;20.000;2024-03-23T01:08:59;10.00;;;9.40;;
21084;SDS011;72320;50.082;20.000;2024-03-23T01:11:45;9.80;;;9.20;;
21084;SDS011;72320;50.082;20.000;2024-03-23T01:14:31;10.20;;;9.60;;
21084;SDS011;72320;50.082;20.000;2024-03-23T01:17:16;10.40;;;9.80;;
21084;SDS011;72320;50.082;20.000;2024-03-23T01:20:02;10.10;;;9.50;;
21084;SDS011;72320;50.082;20.000;2024-03-23T01:22:48;9.60;;;9.00;;
21084;SDS011;72320;50.082;20.000;2024-03-23T01:25:34;9.80;;;9.20;;
21084;SDS011;72320;50.082;20.000;2024-03-23T01:28:20;9.70;;;9.10;;
21084;SDS011;72320;50.082;20.000;2024-03-23T01:31:06;9.90;;;9.30;;
21084;SDS011;72320;50.082;20.000;2024-03-23T01:33:52;10.30;;;9.70;;
21084;SDS011;72320;50.082;20.000;2024-03-23T01:36:38;10.80;;;10.00;;
21084;SDS011;72320;50.082;20.000;2024-03-23T01:39:04;9.60;;;9.00;;
21084;SDS011;72320;50.082;20.000;2024-03-23T01:41:30;9.60;;;9.00;;
21084;SDS011;72320;50.082;20.000;2024-03-23T01:43:56;9.70;;;9.10;;
21084;SDS011;72320;50.082;20.000;2024-03-23T01:46:22;9.50;;;8.90;;
21084;SDS011;72320;50.082;20.000;2024-03-23T01:48:48;9.90;;;9.30;;
21084;SDS011;72320;50.082;20.000;2024-03-23T01:51:15;10.00;;;9.40;;
21084;SDS011;72320;50.082;20.000;2024-03-23T01:53:41;10.00;;;9.40;;
21084;SDS011;72320;50.082;20.000;2024-03-23T01:56:07;10.50;;;9.90;;
21084;SDS011;72320;50.082;20.000;2024-03-23T01:58:34;10.90;;;10.30;;
21084;SDS011;72320;50.082;20.000;2024-03-23T02:01:00;12.20;;;11.40;;
21084;SDS011;72320;50.082;20.000;2024-03-23T02:03:26;12.60;;;11.80;;
21084;SDS011;72320;50.082;20.000;2024-03-23T02:05:54;12.20;;;11.50;;
21084;SDS011;72320;50.082;20.000;2024-03-23T02:08:22;11.90;;;11.20;;
21084;SDS011;72320;50.082;20.000;2024-03-23T02:10:50;11.90;;;11.20;;
21084;SDS011;72320;50.082;20.000;2024-03-23T02:13:17;13.00;;;12.20;;
21084;SDS011;72320;50.082;20.000;2024-03-23T02:15:44;11.50;;;10.80;;
21084;SDS011;72320;50.082;20.000;2024-03-23T02:18:33;11.30;;;10.60;;
21084;SDS011;72320;50.082;20.000;2024-03-23T02:20:59;11.00;;;10.30;;
21084;SDS011;72320;50.082;20.000;2024-03-23T02:23:45;10.10;;;9.50;;
21084;SDS011;72320;50.082;20.000;2024-03-23T02:26:31;10.40;;;9.80;;
21084;SDS011;72320;50.082;20.000;2024-03-23T02:29:11;11.60;;;10.90;;
21084;SDS011;72320;50.082;20.000;2024-03-23T02:31:57;10.00;;;9.40;;
21084;SDS011;72320;50.082;20.000;2024-03-23T02:34:43;9.60;;;9.00;;
21084;SDS011;72320;50.082;20.000;2024-03-23T02:37:28;9.20;;;8.70;;
21084;SDS011;72320;50.082;20.000;2024-03-23T02:40:15;11.50;;;10.70;;
21084;SDS011;72320;50.082;20.000;2024-03-23T02:43:02;10.30;;;9.70;;
21084;SDS011;72320;50.082;20.000;2024-03-23T02:45:48;9.70;;;9.10;;
21084;SDS011;72320;50.082;20.000;2024-03-23T02:48:36;9.10;;;8.60;;
21084;SDS011;72320;50.082;20.000;2024-03-23T02:51:21;9.60;;;9.00;;
21084;SDS011;72320;50.082;20.000;2024-03-23T02:54:07;9.40;;;8.80;;
21084;SDS011;72320;50.082;20.000;2024-03-23T02:56:53;9.30;;;8.70;;
21084;SDS011;72320;50.082;20.000;2024-03-23T02:59:39;9.30;;;8.70;;
21084;SDS011;72320;50.082;20.000;2024-03-23T03:02:25;9.20;;;8.60;;
21084;SDS011;72320;50.082;20.000;2024-03-23T03:04:51;9.70;;;9.10;;
21084;SDS011;72320;50.082;20.000;2024-03-23T03:07:37;9.50;;;8.90;;
21084;SDS011;72320;50.082;20.000;2024-03-23T03:10:23;10.10;;;9.50;;
21084;SDS011;72320;50.082;20.000;2024-03-23T03:13:09;10.80;;;10.20;;
21084;SDS011;72320;50.082;20.000;2024-03-23T03:15:55;10.00;;;9.40;;
21084;SDS011;72320;50.082;20.000;2024-03-23T03:18:43;10.00;;;9.40;;
21084;SDS011;72320;50.082;20.000;2024-03-23T03:21:28;10.40;;;9.80;;
21084;SDS011;72320;50.082;20.000;2024-03-23T03:24:14;10.50;;;9.90;;
21084;SDS011;72320;50.082;20.000;2024-03-23T03:27:00;9.90;;;9.30;;
21084;SDS011;72320;50.082;20.000;2024-03-23T03:29:46;9.40;;;8.80;;
21084;SDS011;72320;50.082;20.000;2024-03-23T03:32:12;10.80;;;10.10;;
21084;SDS011;72320;50.082;20.000;2024-03-23T03:34:58;9.90;;;9.30;;
21084;SDS011;72320;50.082;20.000;2024-03-23T03:37:44;9.80;;;9.20;;
21084;SDS011;72320;50.082;20.000;2024-03-23T03:40:30;9.40;;;8.80;;
21084;SDS011;72320;50.082;20.000;2024-03-23T03:43:16;9.70;;;9.10;;
21084;SDS011;72320;50.082;20.000;2024-03-23T03:46:02;9.70;;;9.10;;
21084;SDS011;72320;50.082;20.000;2024-03-23T03:48:50;10.70;;;10.00;;
21084;SDS011;72320;50.082;20.000;2024-03-23T03:51:35;10.90;;;10.20;;
21084;SDS011;72320;50.082;20.000;2024-03-23T03:54:21;10.50;;;9.90;;
21084;SDS011;72320;50.082;20.000;2024-03-23T03:57:07;10.70;;;10.00;;
21084;SDS011;72320;50.082;20.000;2024-03-23T03:59:54;10.20;;;9.50;;
21084;SDS011;72320;50.082;20.000;2024-03-23T04:02:40;11.00;;;10.30;;
21084;SDS011;72320;50.082;20.000;2024-03-23T04:05:25;10.40;;;9.80;;
21084;SDS011;72320;50.082;20.000;2024-03-23T04:08:11;10.30;;;9.70;;
21084;SDS011;72320;50.082;20.000;2024-03-23T04:10:57;11.40;;;10.70;;
21084;SDS011;72320;50.082;20.000;2024-03-23T04:13:43;10.30;;;9.70;;
21084;SDS011;72320;50.082;20.000;2024-03-23T04:16:32;10.40;;;9.80;;
21084;SDS011;72320;50.082;20.000;2024-03-23T04:19:20;10.50;;;9.80;;
21084;SDS011;72320;50.082;20.000;2024-03-23T04:22:06;9.80;;;9.20;;
21084;SDS011;72320;50.082;20.000;2024-03-23T04:24:55;9.70;;;9.10;;
21084;SDS011;72320;50.082;20.000;2024-03-23T04:27:41;9.70;;;9.10;;
21084;SDS011;72320;50.082;20.000;2024-03-23T04:30:27;9.50;;;9.00;;
21084;SDS011;72320;50.082;20.000;2024-03-23T04:33:13;9.70;;;9.10;;
21084;SDS011;72320;50.082;20.000;2024-03-23T04:35:59;11.20;;;10.50;;
21084;SDS011;72320;50.082;20.000;2024-03-23T04:38:46;10.30;;;9.60;;
21084;SDS011;72320;50.082;20.000;2024-03-23T04:41:33;11.30;;;10.60;;
21084;SDS011;72320;50.082;20.000;2024-03-23T04:44:19;10.00;;;9.40;;
21084;SDS011;72320;50.082;20.000;2024-03-23T04:47:05;10.40;;;9.70;;
21084;SDS011;72320;50.082;20.000;2024-03-23T04:49:50;11.10;;;10.30;;
21084;SDS011;72320;50.082;20.000;2024-03-23T04:52:36;10.40;;;9.70;;
21084;SDS011;72320;50.082;20.000;2024-03-23T04:55:22;10.60;;;9.90;;
21084;SDS011;72320;50.082;20.000;2024-03-23T04:58:07;10.30;;;9.60;;
21084;SDS011;72320;50.082;20.000;2024-03-23T05:00:56;9.90;;;9.30;;
21084;SDS011;72320;50.082;20.000;2024-03-23T05:03:23;9.80;;;9.20;;
21084;SDS011;72320;50.082;20.000;2024-03-23T05:05:50;9.90;;;9.30;;
21084;SDS011;72320;50.082;20.000;2024-03-23T05:08:16;11.20;;;10.50;;
21084;SDS011;72320;50.082;20.000;2024-03-23T05:10:42;11.20;;;10.50;;
21084;SDS011;72320;50.082;20.000;2024-03-23T05:13:09;11.70;;;11.00;;
21084;SDS011;72320;50.082;20.000;2024-03-23T05:15:35;12.00;;;11.20;;
21084;SDS011;72320;50.082;20.000;2024-03-23T05:18:02;11.80;;;11.00;;
21084;SDS011;72320;50.082;20.000;2024-03-23T05:20:28;11.20;;;10.50;;
21084;SDS011;72320;50.082;20.000;2024-03-23T05:22:57;12.00;;;11.30;;
21084;SDS011;72320;50.082;20.000;2024-03-23T05:25:23;12.10;;;11.40;;
21084;SDS011;72320;50.082;20.000;2024-03-23T05:27:48;11.60;;;10.90;;
21084;SDS011;72320;50.082;20.000;2024-03-23T05:30:15;12.30;;;11.50;;
21084;SDS011;72320;50.082;20.000;2024-03-23T05:32:41;11.00;;;10.30;;
21084;SDS011;72320;50.082;20.000;2024-03-23T05:35:08;12.30;;;11.50;;
21084;SDS011;72320;50.082;20.000;2024-03-23T05:37:35;12.10;;;11.30;;
21084;SDS011;72320;50.082;20.000;2024-03-23T05:40:20;13.00;;;12.20;;
21084;SDS011;72320;50.082;20.000;2024-03-23T05:43:08;14.00;;;13.10;;
21084;SDS011;72320;50.082;20.000;2024-03-23T05:45:42;13.40;;;12.50;;
21084;SDS011;72320;50.082;20.000;2024-03-23T05:48:28;13.20;;;12.40;;
21084;SDS011;72320;50.082;20.000;2024-03-23T05:51:14;13.10;;;12.30;;
21084;SDS011;72320;50.082;20.000;2024-03-23T05:54:00;13.10;;;12.20;;
21084;SDS011;72320;50.082;20.000;2024-03-23T05:56:26;13.50;;;12.60;;
21084;SDS011;72320;50.082;20.000;2024-03-23T05:59:12;14.30;;;13.30;;
21084;SDS011;72320;50.082;20.000;2024-03-23T06:01:58;13.50;;;12.60;;
21084;SDS011;72320;50.082;20.000;2024-03-23T06:04:45;14.50;;;13.50;;
21084;SDS011;72320;50.082;20.000;2024-03-23T06:07:32;15.60;;;14.50;;
21084;SDS011;72320;50.082;20.000;2024-03-23T06:10:19;15.80;;;14.80;;
21084;SDS011;72320;50.082;20.000;2024-03-23T06:13:10;15.00;;;14.00;;
21084;SDS011;72320;50.082;20.000;2024-03-23T06:15:57;14.90;;;13.90;;
21084;SDS011;72320;50.082;20.000;2024-03-23T06:18:42;16.20;;;15.10;;
21084;SDS011;72320;50.082;20.000;2024-03-23T06:21:16;16.20;;;15.10;;
21084;SDS011;72320;50.082;20.000;2024-03-23T06:24:02;15.30;;;14.30;;
21084;SDS011;72320;50.082;20.000;2024-03-23T06:26:48;14.90;;;13.90;;
21084;SDS011;72320;50.082;20.000;2024-03-23T06:29:34;14.00;;;13.10;;
21084;SDS011;72320;50.082;20.000;2024-03-23T06:32:20;15.20;;;14.20;;
21084;SDS011;72320;50.082;20.000;2024-03-23T06:35:07;13.50;;;12.60;;
21084;SDS011;72320;50.082;20.000;2024-03-23T06:37:52;12.80;;;12.00;;
21084;SDS011;72320;50.082;20.000;2024-03-23T06:40:38;14.00;;;13.10;;
21084;SDS011;72320;50.082;20.000;2024-03-23T06:43:24;13.90;;;13.00;;
21084;SDS011;72320;50.082;20.000;2024-03-23T06:46:10;13.50;;;12.70;;
21084;SDS011;72320;50.082;20.000;2024-03-23T06:48:56;13.00;;;12.20;;
21084;SDS011;72320;50.082;20.000;2024-03-23T06:51:42;12.60;;;11.80;;
21084;SDS011;72320;50.082;20.000;2024-03-23T06:54:28;13.60;;;12.70;;
21084;SDS011;72320;50.082;20.000;2024-03-23T06:56:54;12.50;;;11.60;;
21084;SDS011;72320;50.082;20.000;2024-03-23T06:59:40;12.50;;;11.70;;
21084;SDS011;72320;50.082;20.000;2024-03-23T07:02:26;11.80;;;11.10;;
21084;SDS011;72320;50.082;20.000;2024-03-23T07:05:11;11.90;;;11.20;;
21084;SDS011;72320;50.082;20.000;2024-03-23T07:07:58;11.50;;;10.80;;
21084;SDS011;72320;50.082;20.000;2024-03-23T07:10:43;12.50;;;11.70;;
21084;SDS011;72320;50.082;20.000;2024-03-23T07:13:29;14.00;;;13.10;;
21084;SDS011;72320;50.082;20.000;2024-03-23T07:16:16;13.80;;;12.90;;
21084;SDS011;72320;50.082;20.000;2024-03-23T07:19:02;14.30;;;13.30;;
21084;SDS011;72320;50.082;20.000;2024-03-23T07:21:48;13.90;;;13.00;;
21084;SDS011;72320;50.082;20.000;2024-03-23T07:24:34;12.50;;;11.70;;
21084;SDS011;72320;50.082;20.000;2024-03-23T07:27:20;11.90;;;11.10;;
21084;SDS011;72320;50.082;20.000;2024-03-23T07:30:06;13.60;;;12.70;;
21084;SDS011;72320;50.082;20.000;2024-03-23T07:32:35;12.90;;;12.00;;
21084;SDS011;72320;50.082;20.000;2024-03-23T07:35:21;13.00;;;12.20;;
21084;SDS011;72320;50.082;20.000;2024-03-23T07:38:07;13.10;;;12.30;;
21084;SDS011;72320;50.082;20.000;2024-03-23T07:41:08;12.60;;;11.70;;
21084;SDS011;72320;50.082;20.000;2024-03-23T07:43:55;11.50;;;10.80;;
21084;SDS011;72320;50.082;20.000;2024-03-23T07:46:40;11.50;;;10.80;;
21084;SDS011;72320;50.082;20.000;2024-03-23T07:49:26;11.90;;;11.10;;
21084;SDS011;72320;50.082;20.000;2024-03-23T07:52:12;11.70;;;10.90;;
21084;SDS011;72320;50.082;20.000;2024-03-23T07:54:59;11.40;;;10.70;;
21084;SDS011;72320;50.082;20.000;2024-03-23T07:57:25;10.30;;;9.70;;
21084;SDS011;72320;50.082;20.000;2024-03-23T08:00:11;11.80;;;11.00;;
21084;SDS011;72320;50.082;20.000;2024-03-23T08:02:58;11.60;;;10.90;;
21084;SDS011;72320;50.082;20.000;2024-03-23T08:05:44;10.60;;;9.90;;
21084;SDS011;72320;50.082;20.000;2024-03-23T08:08:30;10.00;;;9.30;;
21084;SDS011;72320;50.082;20.000;2024-03-23T08:11:16;11.10;;;10.40;;
21084;SDS011;72320;50.082;20.000;2024-03-23T08:14:02;10.60;;;9.90;;
21084;SDS011;72320;50.082;20.000;2024-03-23T08:16:29;10.70;;;10.00;;
21084;SDS011;72320;50.082;20.000;2024-03-23T08:18:55;10.00;;;9.40;;
21084;SDS011;72320;50.082;20.000;2024-03-23T08:21:21;9.50;;;8.90;;
21084;SDS011;72320;50.082;20.000;2024-03-23T08:23:47;9.00;;;8.40;;
21084;SDS011;72320;50.082;20.000;2024-03-23T08:26:16;8.30;;;7.80;;
21084;SDS011;72320;50.082;20.000;2024-03-23T08:28:45;9.60;;;9.00;;
21084;SDS011;72320;50.082;20.000;2024-03-23T08:31:12;7.70;;;7.20;;
21084;SDS011;72320;50.082;20.000;2024-03-23T08:33:38;8.10;;;7.60;;
21084;SDS011;72320;50.082;20.000;2024-03-23T08:36:07;7.10;;;6.70;;
21084;SDS011;72320;50.082;20.000;2024-03-23T08:38:34;7.50;;;7.00;;
21084;SDS011;72320;50.082;20.000;2024-03-23T08:41:08;7.20;;;6.70;;
21084;SDS011;72320;50.082;20.000;2024-03-23T08:43:37;7.00;;;6.60;;
21084;SDS011;72320;50.082;20.000;2024-03-23T08:48:43;7.10;;;6.60;;
21084;SDS011;72320;50.082;20.000;2024-03-23T08:51:15;6.60;;;6.20;;
21084;SDS011;72320;50.082;20.000;2024-03-23T08:53:42;6.70;;;6.30;;
21084;SDS011;72320;50.082;20.000;2024-03-23T08:56:10;6.70;;;6.30;;
21084;SDS011;72320;50.082;20.000;2024-03-23T08:58:56;7.10;;;6.70;;
21084;SDS011;72320;50.082;20.000;2024-03-23T09:01:41;6.10;;;5.80;;
21084;SDS011;72320;50.082;20.000;2024-03-23T09:04:24;6.40;;;6.00;;
21084;SDS011;72320;50.082;20.000;2024-03-23T09:06:50;7.10;;;6.70;;
21084;SDS011;72320;50.082;20.000;2024-03-23T09:09:38;6.50;;;6.10;;
21084;SDS011;72320;50.082;20.000;2024-03-23T09:12:24;6.10;;;5.70;;
21084;SDS011;72320;50.082;20.000;2024-03-23T09:14:51;5.70;;;5.40;;
21084;SDS011;72320;50.082;20.000;2024-03-23T09:17:37;5.70;;;5.40;;
21084;SDS011;72320;50.082;20.000;2024-03-23T09:20:23;6.10;;;5.80;;
21084;SDS011;72320;50.082;20.000;2024-03-23T09:23:09;5.60;;;5.30;;
21084;SDS011;72320;50.082;20.000;2024-03-23T09:25:39;5.70;;;5.40;;
21084;SDS011;72320;50.082;20.000;2024-03-23T09:28:25;5.10;;;4.80;;
21084;SDS011;72320;50.082;20.000;2024-03-23T09:31:13;5.20;;;4.90;;
21084;SDS011;72320;50.082;20.000;2024-03-23T09:33:59;5.30;;;5.00;;
21084;SDS011;72320;50.082;20.000;2024-03-23T09:36:44;4.80;;;4.60;;
21084;SDS011;72320;50.082;20.000;2024-03-23T09:39:30;5.00;;;4.70;;
21084;SDS011;72320;50.082;20.000;2024-03-23T09:41:58;5.20;;;4.90;;
21084;SDS011;72320;50.082;20.000;2024-03-23T09:44:44;4.60;;;4.30;;
21084;SDS011;72320;50.082;20.000;2024-03-23T09:47:30;5.00;;;4.70;;
21084;SDS011;72320;50.082;20.000;2024-03-23T09:50:16;4.90;;;4.60;;
21084;SDS011;72320;50.082;20.000;2024-03-23T09:53:02;4.80;;;4.50;;
21084;SDS011;72320;50.082;20.000;2024-03-23T09:55:48;4.60;;;4.30;;
21084;SDS011;72320;50.082;20.000;2024-03-23T09:58:34;4.70;;;4.40;;
21084;SDS011;72320;50.082;20.000;2024-03-23T10:01:21;4.50;;;4.30;;
21084;SDS011;72320;50.082;20.000;2024-03-23T10:04:07;4.00;;;3.80;;
21084;SDS011;72320;50.082;20.000;2024-03-23T10:06:53;4.30;;;4.10;;
21084;SDS011;72320;50.082;20.000;2024-03-23T10:09:39;4.40;;;4.20;;
21084;SDS011;72320;50.082;20.000;2024-03-23T10:12:26;4.30;;;4.00;;
21084;SDS011;72320;50.082;20.000;2024-03-23T10:15:21;4.30;;;4.10;;
21084;SDS011;72320;50.082;20.000;2024-03-23T10:18:19;4.60;;;4.40;;
21084;SDS011;72320;50.082;20.000;2024-03-23T10:23:50;4.10;;;3.90;;
21084;SDS011;72320;50.082;20.000;2024-03-23T10:26:35;4.30;;;4.10;;
21084;SDS011;72320;50.082;20.000;2024-03-23T10:29:21;4.70;;;4.40;;
21084;SDS011;72320;50.082;20.000;2024-03-23T10:32:11;4.40;;;4.20;;
21084;SDS011;72320;50.082;20.000;2024-03-23T10:35:13;4.10;;;3.90;;
21084;SDS011;72320;50.082;20.000;2024-03-23T10:38:04;4.00;;;3.80;;
21084;SDS011;72320;50.082;20.000;2024-03-23T10:40:34;3.50;;;3.30;;
21084;SDS011;72320;50.082;20.000;2024-03-23T10:43:23;3.70;;;3.50;;
21084;SDS011;72320;50.082;20.000;2024-03-23T10:46:09;4.00;;;3.80;;
21084;SDS011;72320;50.082;20.000;2024-03-23T10:48:51;3.60;;;3.40;;
21084;SDS011;72320;50.082;20.000;2024-03-23T10:51:37;3.50;;;3.30;;
21084;SDS011;72320;50.082;20.000;2024-03-23T10:54:24;3.40;;;3.20;;
21084;SDS011;72320;50.082;20.000;2024-03-23T10:57:14;3.30;;;3.10;;
21084;SDS011;72320;50.082;20.000;2024-03-23T11:00:06;3.40;;;3.20;;
21084;SDS011;72320;50.082;20.000;2024-03-23T11:02:52;3.40;;;3.20;;
21084;SDS011;72320;50.082;20.000;2024-03-23T11:05:38;3.40;;;3.30;;
21084;SDS011;72320;50.082;20.000;2024-03-23T11:08:36;3.10;;;3.00;;
21084;SDS011;72320;50.082;20.000;2024-03-23T11:11:24;3.40;;;3.30;;
21084;SDS011;72320;50.082;20.000;2024-03-23T11:13:59;3.40;;;3.30;;
21084;SDS011;72320;50.082;20.000;2024-03-23T11:16:45;3.10;;;3.00;;
21084;SDS011;72320;50.082;20.000;2024-03-23T11:19:34;3.50;;;3.30;;
21084;SDS011;72320;50.082;20.000;2024-03-23T11:25:29;3.80;;;3.60;;
21084;SDS011;72320;50.082;20.000;2024-03-23T11:28:15;3.50;;;3.40;;
21084;SDS011;72320;50.082;20.000;2024-03-23T11:30:42;4.10;;;3.90;;
21084;SDS011;72320;50.082;20.000;2024-03-23T11:33:27;3.90;;;3.70;;
21084;SDS011;72320;50.082;20.000;2024-03-23T11:35:54;3.40;;;3.30;;
21084;SDS011;72320;50.082;20.000;2024-03-23T11:38:20;3.80;;;3.60;;
21084;SDS011;72320;50.082;20.000;2024-03-23T11:40:49;3.60;;;3.40;;
21084;SDS011;72320;50.082;20.000;2024-03-23T11:43:19;3.40;;;3.20;;
21084;SDS011;72320;50.082;20.000;2024-03-23T11:45:49;3.50;;;3.30;;
21084;SDS011;72320;50.082;20.000;2024-03-23T11:48:22;3.30;;;3.20;;
21084;SDS011;72320;50.082;20.000;2024-03-23T11:50:50;3.10;;;3.00;;
21084;SDS011;72320;50.082;20.000;2024-03-23T11:53:23;3.20;;;3.00;;
21084;SDS011;72320;50.082;20.000;2024-03-23T11:55:57;3.10;;;3.00;;
21084;SDS011;72320;50.082;20.000;2024-03-23T11:58:26;3.00;;;2.90;;
21084;SDS011;72320;50.082;20.000;2024-03-23T12:01:02;3.50;;;3.30;;
21084;SDS011;72320;50.082;20.000;2024-03-23T12:03:29;2.60;;;2.50;;
21084;SDS011;72320;50.082;20.000;2024-03-23T12:05:58;3.00;;;2.80;;
21084;SDS011;72320;50.082;20.000;2024-03-23T12:08:33;2.80;;;2.70;;
21084;SDS011;72320;50.082;20.000;2024-03-23T12:11:15;2.90;;;2.80;;
21084;SDS011;72320;50.082;20.000;2024-03-23T12:14:03;2.60;;;2.50;;
21084;SDS011;72320;50.082;20.000;2024-03-23T12:16:44;2.60;;;2.50;;
21084;SDS011;72320;50.082;20.000;2024-03-23T12:19:30;2.60;;;2.50;;
21084;SDS011;72320;50.082;20.000;2024-03-23T12:22:20;2.60;;;2.50;;
21084;SDS011;72320;50.082;20.000;2024-03-23T12:25:02;2.90;;;2.80;;
21084;SDS011;72320;50.082;20.000;2024-03-23T12:27:49;3.00;;;2.90;;
21084;SDS011;72320;50.082;20.000;2024-03-23T12:30:40;2.80;;;2.70;;
21084;SDS011;72320;50.082;20.000;2024-03-23T12:33:26;2.60;;;2.50;;
21084;SDS011;72320;50.082;20.000;2024-03-23T12:36:12;2.60;;;2.50;;
21084;SDS011;72320;50.082;20.000;2024-03-23T12:38:58;2.60;;;2.50;;
21084;SDS011;72320;50.082;20.000;2024-03-23T12:41:44;2.90;;;2.80;;
21084;SDS011;72320;50.082;20.000;2024-03-23T12:44:30;3.00;;;2.90;;
21084;SDS011;72320;50.082;20.000;2024-03-23T12:47:16;2.70;;;2.60;;
21084;SDS011;72320;50.082;20.000;2024-03-23T12:50:02;2.70;;;2.60;;
21084;SDS011;72320;50.082;20.000;2024-03-23T12:52:48;2.70;;;2.60;;
21084;SDS011;72320;50.082;20.000;2024-03-23T12:55:37;2.60;;;2.50;;
21084;SDS011;72320;50.082;20.000;2024-03-23T12:58:23;2.60;;;2.50;;
21084;SDS011;72320;50.082;20.000;2024-03-23T13:01:09;2.70;;;2.60;;
21084;SDS011;72320;50.082;20.000;2024-03-23T13:03:56;2.70;;;2.60;;
21084;SDS011;72320;50.082;20.000;2024-03-23T13:06:41;2.90;;;2.80;;
21084;SDS011;72320;50.082;20.000;2024-03-23T13:09:27;2.80;;;2.70;;
21084;SDS011;72320;50.082;20.000;2024-03-23T13:12:13;2.80;;;2.70;;
21084;SDS011;72320;50.082;20.000;2024-03-23T13:15:00;3.10;;;2.80;;
21084;SDS011;72320;50.082;20.000;2024-03-23T13:17:46;2.90;;;2.80;;
21084;SDS011;72320;50.082;20.000;2024-03-23T13:20:35;2.90;;;2.80;;
21084;SDS011;72320;50.082;20.000;2024-03-23T13:23:21;2.90;;;2.80;;
21084;SDS011;72320;50.082;20.000;2024-03-23T13:25:54;2.80;;;2.70;;
21084;SDS011;72320;50.082;20.000;2024-03-23T13:28:41;2.40;;;2.30;;
21084;SDS011;72320;50.082;20.000;2024-03-23T13:31:27;2.70;;;2.60;;
21084;SDS011;72320;50.082;20.000;2024-03-23T13:34:13;2.60;;;2.50;;
21084;SDS011;72320;50.082;20.000;2024-03-23T13:37:00;2.70;;;2.60;;
21084;SDS011;72320;50.082;20.000;2024-03-23T13:39:46;2.50;;;2.40;;
21084;SDS011;72320;50.082;20.000;2024-03-23T13:42:32;2.70;;;2.60;;
21084;SDS011;72320;50.082;20.000;2024-03-23T13:45:19;2.90;;;2.80;;
21084;SDS011;72320;50.082;20.000;2024-03-23T13:48:05;2.70;;;2.60;;
21084;SDS011;72320;50.082;20.000;2024-03-23T13:51:02;2.80;;;2.70;;
21084;SDS011;72320;50.082;20.000;2024-03-23T13:53:49;2.70;;;2.60;;
21084;SDS011;72320;50.082;20.000;2024-03-23T13:56:35;2.80;;;2.70;;
21084;SDS011;72320;50.082;20.000;2024-03-23T13:59:09;2.80;;;2.70;;
21084;SDS011;72320;50.082;20.000;2024-03-23T14:01:57;2.80;;;2.70;;
21084;SDS011;72320;50.082;20.000;2024-03-23T14:04:44;2.70;;;2.60;;
21084;SDS011;72320;50.082;20.000;2024-03-23T14:07:29;2.70;;;2.60;;
21084;SDS011;72320;50.082;20.000;2024-03-23T14:10:15;2.70;;;2.60;;
21084;SDS011;72320;50.082;20.000;2024-03-23T14:13:01;3.00;;;2.90;;
21084;SDS011;72320;50.082;20.000;2024-03-23T14:15:53;2.70;;;2.60;;
21084;SDS011;72320;50.082;20.000;2024-03-23T14:18:40;2.70;;;2.60;;
21084;SDS011;72320;50.082;20.000;2024-03-23T14:21:25;2.60;;;2.50;;
21084;SDS011;72320;50.082;20.000;2024-03-23T14:24:11;2.80;;;2.70;;
21084;SDS011;72320;50.082;20.000;2024-03-23T14:26:57;2.80;;;2.70;;
21084;SDS011;72320;50.082;20.000;2024-03-23T14:29:45;2.80;;;2.70;;
21084;SDS011;72320;50.082;20.000;2024-03-23T14:32:33;3.30;;;3.10;;
21084;SDS011;72320;50.082;20.000;2024-03-23T14:35:21;2.90;;;2.80;;
21084;SDS011;72320;50.082;20.000;2024-03-23T14:38:07;3.10;;;2.90;;
21084;SDS011;72320;50.082;20.000;2024-03-23T14:40:53;3.80;;;3.10;;
21084;SDS011;72320;50.082;20.000;2024-03-23T14:43:38;3.40;;;3.10;;
21084;SDS011;72320;50.082;20.000;2024-03-23T14:46:24;7.80;;;3.50;;
21084;SDS011;72320;50.082;20.000;2024-03-23T14:49:14;4.90;;;3.20;;
21084;SDS011;72320;50.082;20.000;2024-03-23T14:51:43;3.10;;;2.80;;
21084;SDS011;72320;50.082;20.000;2024-03-23T14:54:09;3.10;;;2.90;;
21084;SDS011;72320;50.082;20.000;2024-03-23T14:56:35;3.10;;;2.90;;
21084;SDS011;72320;50.082;20.000;2024-03-23T14:59:01;3.20;;;3.10;;
21084;SDS011;72320;50.082;20.000;2024-03-23T15:01:28;3.20;;;3.10;;
21084;SDS011;72320;50.082;20.000;2024-03-23T15:03:54;3.30;;;3.20;;
21084;SDS011;72320;50.082;20.000;2024-03-23T15:06:20;3.20;;;3.10;;
21084;SDS011;72320;50.082;20.000;2024-03-23T15:08:46;3.40;;;3.20;;
21084;SDS011;72320;50.082;20.000;2024-03-23T15:11:11;3.50;;;3.30;;
21084;SDS011;72320;50.082;20.000;2024-03-23T15:13:39;3.80;;;3.50;;
21084;SDS011;72320;50.082;20.000;2024-03-23T15:16:05;3.50;;;3.30;;
21084;SDS011;72320;50.082;20.000;2024-03-23T15:18:32;3.50;;;3.40;;
21084;SDS011;72320;50.082;20.000;2024-03-23T15:21:00;3.70;;;3.50;;
21084;SDS011;72320;50.082;20.000;2024-03-23T15:23:35;4.00;;;3.80;;
21084;SDS011;72320;50.082;20.000;2024-03-23T15:26:02;4.00;;;3.80;;
21084;SDS011;72320;50.082;20.000;2024-03-23T15:28:29;3.40;;;3.30;;
21084;SDS011;72320;50.082;20.000;2024-03-23T15:31:08;3.80;;;3.60;;
21084;SDS011;72320;50.082;20.000;2024-03-23T15:33:35;3.80;;;3.60;;
21084;SDS011;72320;50.082;20.000;2024-03-23T15:36:21;3.90;;;3.70;;
21084;SDS011;72320;50.082;20.000;2024-03-23T15:39:08;4.30;;;4.10;;
21084;SDS011;72320;50.082;20.000;2024-03-23T15:41:54;4.60;;;4.40;;
21084;SDS011;72320;50.082;20.000;2024-03-23T15:44:39;4.00;;;3.80;;
21084;SDS011;72320;50.082;20.000;2024-03-23T15:47:25;4.30;;;4.10;;
21084;SDS011;72320;50.082;20.000;2024-03-23T15:49:56;4.00;;;3.90;;
21084;SDS011;72320;50.082;20.000;2024-03-23T15:52:41;4.20;;;4.00;;
21084;SDS011;72320;50.082;20.000;2024-03-23T15:55:28;4.10;;;3.90;;
21084;SDS011;72320;50.082;20.000;2024-03-23T15:58:16;4.40;;;4.20;;
21084;SDS011;72320;50.082;20.000;2024-03-23T16:01:06;4.60;;;4.40;;
21084;SDS011;72320;50.082;20.000;2024-03-23T16:03:56;4.20;;;4.00;;
21084;SDS011;72320;50.082;20.000;2024-03-23T16:06:42;4.10;;;4.00;;
21084;SDS011;72320;50.082;20.000;2024-03-23T16:09:28;4.60;;;4.40;;
21084;SDS011;72320;50.082;20.000;2024-03-23T16:12:14;4.30;;;4.10;;
21084;SDS011;72320;50.082;20.000;2024-03-23T16:14:59;4.60;;;4.40;;
21084;SDS011;72320;50.082;20.000;2024-03-23T16:17:45;4.70;;;4.50;;
21084;SDS011;72320;50.082;20.000;2024-03-23T16:20:31;4.80;;;4.60;;
21084;SDS011;72320;50.082;20.000;2024-03-23T16:23:17;4.50;;;4.30;;
21084;SDS011;72320;50.082;20.000;2024-03-23T16:26:05;4.60;;;4.40;;
21084;SDS011;72320;50.082;20.000;2024-03-23T16:28:51;4.60;;;4.40;;
21084;SDS011;72320;50.082;20.000;2024-03-23T16:31:37;4.80;;;4.60;;
21084;SDS011;72320;50.082;20.000;2024-03-23T16:34:22;4.80;;;4.60;;
21084;SDS011;72320;50.082;20.000;2024-03-23T16:37:08;4.90;;;4.70;;
21084;SDS011;72320;50.082;20.000;2024-03-23T16:39:54;4.50;;;4.30;;
21084;SDS011;72320;50.082;20.000;2024-03-23T16:42:40;4.40;;;4.20;;
21084;SDS011;72320;50.082;20.000;2024-03-23T16:45:26;4.40;;;4.20;;
21084;SDS011;72320;50.082;20.000;2024-03-23T16:48:11;4.80;;;4.60;;
21084;SDS011;72320;50.082;20.000;2024-03-23T16:50:37;4.60;;;4.40;;